sensor_id;sensor_type;location;lat;lon;timestamp;P1;durP1;ratioP1;P2;durP2;ratioP2
81714;SDS011;71125;44.066;2.982;2023-07-22T00:00:52;5.50;;;1.83;;
81714;SDS011;71125;44.066;2.982;2023-07-22T00:03:18;5.68;;;2.38;;
81714;SDS011;71125;44.066;2.982;2023-07-22T00:05:44;6.13;;;2.40;;
81714;SDS011;71125;44.066;2.982;2023-07-22T00:08:10;6.57;;;2.22;;
81714;SDS011;71125;44.066;2.982;2023-07-22T00:10:40;8.13;;;2.28;;
81714;SDS011;71125;44.066;2.982;2023-07-22T00:13:06;6.60;;;2.20;;
81714;SDS011;71125;44.066;2.982;2023-07-22T00:15:32;7.15;;;2.35;;
81714;SDS011;71125;44.066;2.982;2023-07-22T00:17:58;3.88;;;2.05;;
81714;SDS011;71125;44.066;2.982;2023-07-22T00:20:24;4.70;;;2.17;;
81714;SDS011;71125;44.066;2.982;2023-07-22T00:22:51;4.30;;;2.40;;
81714;SDS011;71125;44.066;2.982;2023-07-22T00:25:17;4.47;;;1.90;;
81714;SDS011;71125;44.066;2.982;2023-07-22T00:27:43;6.95;;;2.38;;
81714;SDS011;71125;44.066;2.982;2023-07-22T00:30:09;5.30;;;2.20;;
81714;SDS011;71125;44.066;2.982;2023-07-22T00:32:36;5.22;;;2.42;;
81714;SDS011;71125;44.066;2.982;2023-07-22T00:35:03;4.68;;;2.38;;
81714;SDS011;71125;44.066;2.982;2023-07-22T00:37:30;5.45;;;1.98;;
81714;SDS011;71125;44.066;2.982;2023-07-22T00:39:57;4.22;;;2.22;;
81714;SDS011;71125;44.066;2.982;2023-07-22T00:42:23;7.68;;;2.08;;
81714;SDS011;71125;44.066;2.982;2023-07-22T00:44:49;5.15;;;2.13;;
81714;SDS011;71125;44.066;2.982;2023-07-22T00:47:15;3.78;;;2.35;;
81714;SDS011;71125;44.066;2.982;2023-07-22T00:49:42;4.50;;;2.33;;
81714;SDS011;71125;44.066;2.982;2023-07-22T00:52:08;4.20;;;2.17;;
81714;SDS011;71125;44.066;2.982;2023-07-22T00:54:34;4.20;;;2.40;;
81714;SDS011;71125;44.066;2.982;2023-07-22T00:57:00;5.18;;;2.38;;
81714;SDS011;71125;44.066;2.982;2023-07-22T00:59:26;7.97;;;2.63;;
81714;SDS011;71125;44.066;2.982;2023-07-22T01:01:53;3.35;;;2.17;;
81714;SDS011;71125;44.066;2.982;2023-07-22T01:04:19;5.18;;;2.38;;
81714;SDS011;71125;44.066;2.982;2023-07-22T01:06:47;5.97;;;2.55;;
81714;SDS011;71125;44.066;2.982;2023-07-22T01:09:13;3.95;;;2.25;;
81714;SDS011;71125;44.066;2.982;2023-07-22T01:11:40;5.28;;;2.30;;
81714;SDS011;71125;44.066;2.982;2023-07-22T01:14:06;7.07;;;2.63;;
81714;SDS011;71125;44.066;2.982;2023-07-22T01:16:33;4.97;;;2.38;;
81714;SDS011;71125;44.066;2.982;2023-07-22T01:18:59;4.72;;;2.50;;
81714;SDS011;71125;44.066;2.982;2023-07-22T01:21:25;3.40;;;2.15;;
81714;SDS011;71125;44.066;2.982;2023-07-22T01:23:52;5.30;;;2.42;;
81714;SDS011;71125;44.066;2.982;2023-07-22T01:26:18;4.45;;;2.40;;
81714;SDS011;71125;44.066;2.982;2023-07-22T01:28:44;4.53;;;2.28;;
81714;SDS011;71125;44.066;2.982;2023-07-22T01:31:11;5.13;;;2.35;;
81714;SDS011;71125;44.066;2.982;2023-07-22T01:33:37;3.33;;;1.88;;
81714;SDS011;71125;44.066;2.982;2023-07-22T01:36:03;5.30;;;2.03;;
81714;SDS011;71125;44.066;2.982;2023-07-22T01:38:29;8.32;;;2.15;;
81714;SDS011;71125;44.066;2.982;2023-07-22T01:40:56;8.90;;;2.67;;
81714;SDS011;71125;44.066;2.982;2023-07-22T01:43:22;6.25;;;2.28;;
81714;SDS011;71125;44.066;2.982;2023-07-22T01:45:48;4.20;;;2.35;;
81714;SDS011;71125;44.066;2.982;2023-07-22T01:48:14;6.25;;;2.40;;
81714;SDS011;71125;44.066;2.982;2023-07-22T01:50:41;4.43;;;2.50;;
81714;SDS011;71125;44.066;2.982;2023-07-22T01:53:07;6.65;;;2.15;;
81714;SDS011;71125;44.066;2.982;2023-07-22T01:55:33;5.43;;;1.92;;
81714;SDS011;71125;44.066;2.982;2023-07-22T01:57:59;3.50;;;2.10;;
81714;SDS011;71125;44.066;2.982;2023-07-22T02:00:25;5.95;;;2.90;;
81714;SDS011;71125;44.066;2.982;2023-07-22T02:02:51;4.55;;;2.63;;
81714;SDS011;71125;44.066;2.982;2023-07-22T02:05:18;4.65;;;2.30;;
81714;SDS011;71125;44.066;2.982;2023-07-22T02:07:44;5.35;;;2.25;;
81714;SDS011;71125;44.066;2.982;2023-07-22T02:10:10;5.85;;;2.30;;
81714;SDS011;71125;44.066;2.982;2023-07-22T02:12:36;4.50;;;2.17;;
81714;SDS011;71125;44.066;2.982;2023-07-22T02:15:02;3.50;;;2.10;;
81714;SDS011;71125;44.066;2.982;2023-07-22T02:17:28;5.15;;;2.40;;
81714;SDS011;71125;44.066;2.982;2023-07-22T02:19:55;3.65;;;2.08;;
81714;SDS011;71125;44.066;2.982;2023-07-22T02:22:21;4.22;;;2.40;;
81714;SDS011;71125;44.066;2.982;2023-07-22T02:24:47;5.65;;;2.13;;
81714;SDS011;71125;44.066;2.982;2023-07-22T02:27:13;5.32;;;2.65;;
81714;SDS011;71125;44.066;2.982;2023-07-22T02:29:40;6.95;;;2.50;;
81714;SDS011;71125;44.066;2.982;2023-07-22T02:32:06;2.83;;;1.75;;
81714;SDS011;71125;44.066;2.982;2023-07-22T02:34:32;5.28;;;2.08;;
81714;SDS011;71125;44.066;2.982;2023-07-22T02:36:58;3.45;;;1.90;;
81714;SDS011;71125;44.066;2.982;2023-07-22T02:39:24;5.03;;;2.03;;
81714;SDS011;71125;44.066;2.982;2023-07-22T02:41:50;3.80;;;2.00;;
81714;SDS011;71125;44.066;2.982;2023-07-22T02:44:16;3.47;;;2.08;;
81714;SDS011;71125;44.066;2.982;2023-07-22T02:46:42;4.80;;;2.25;;
81714;SDS011;71125;44.066;2.982;2023-07-22T02:49:08;6.43;;;2.60;;
81714;SDS011;71125;44.066;2.982;2023-07-22T02:51:35;4.70;;;2.22;;
81714;SDS011;71125;44.066;2.982;2023-07-22T02:54:01;5.22;;;2.05;;
81714;SDS011;71125;44.066;2.982;2023-07-22T02:56:28;4.55;;;2.42;;
81714;SDS011;71125;44.066;2.982;2023-07-22T02:58:54;6.28;;;2.15;;
81714;SDS011;71125;44.066;2.982;2023-07-22T03:01:20;7.07;;;2.05;;
81714;SDS011;71125;44.066;2.982;2023-07-22T03:03:46;3.90;;;1.98;;
81714;SDS011;71125;44.066;2.982;2023-07-22T03:06:13;3.83;;;2.15;;
81714;SDS011;71125;44.066;2.982;2023-07-22T03:08:39;8.90;;;2.60;;
81714;SDS011;71125;44.066;2.982;2023-07-22T03:11:05;3.92;;;1.80;;
81714;SDS011;71125;44.066;2.982;2023-07-22T03:13:31;5.35;;;2.40;;
81714;SDS011;71125;44.066;2.982;2023-07-22T03:15:58;3.67;;;2.17;;
81714;SDS011;71125;44.066;2.982;2023-07-22T03:18:28;4.93;;;2.20;;
81714;SDS011;71125;44.066;2.982;2023-07-22T03:20:55;4.82;;;1.90;;
81714;SDS011;71125;44.066;2.982;2023-07-22T03:23:21;6.43;;;2.15;;
81714;SDS011;71125;44.066;2.982;2023-07-22T03:25:47;5.80;;;2.38;;
81714;SDS011;71125;44.066;2.982;2023-07-22T03:28:13;3.53;;;1.95;;
81714;SDS011;71125;44.066;2.982;2023-07-22T03:30:39;4.78;;;2.30;;
81714;SDS011;71125;44.066;2.982;2023-07-22T03:33:05;4.82;;;2.50;;
81714;SDS011;71125;44.066;2.982;2023-07-22T03:35:32;4.30;;;1.90;;
81714;SDS011;71125;44.066;2.982;2023-07-22T03:37:59;4.40;;;2.28;;
81714;SDS011;71125;44.066;2.982;2023-07-22T03:40:25;4.55;;;2.20;;
81714;SDS011;71125;44.066;2.982;2023-07-22T03:42:51;5.80;;;2.35;;
81714;SDS011;71125;44.066;2.982;2023-07-22T03:45:18;5.80;;;2.20;;
81714;SDS011;71125;44.066;2.982;2023-07-22T03:47:44;4.45;;;2.60;;
81714;SDS011;71125;44.066;2.982;2023-07-22T03:50:11;6.85;;;2.40;;
81714;SDS011;71125;44.066;2.982;2023-07-22T03:52:37;4.57;;;2.13;;
81714;SDS011;71125;44.066;2.982;2023-07-22T03:55:03;4.28;;;2.20;;
81714;SDS011;71125;44.066;2.982;2023-07-22T03:57:30;6.63;;;2.38;;
81714;SDS011;71125;44.066;2.982;2023-07-22T03:59:57;4.47;;;2.53;;
81714;SDS011;71125;44.066;2.982;2023-07-22T04:02:23;4.60;;;2.33;;
81714;SDS011;71125;44.066;2.982;2023-07-22T04:04:50;6.07;;;2.72;;
81714;SDS011;71125;44.066;2.982;2023-07-22T04:07:16;5.32;;;2.28;;
81714;SDS011;71125;44.066;2.982;2023-07-22T04:09:43;7.47;;;2.35;;
81714;SDS011;71125;44.066;2.982;2023-07-22T04:12:10;6.93;;;2.67;;
81714;SDS011;71125;44.066;2.982;2023-07-22T04:14:36;4.30;;;2.75;;
81714;SDS011;71125;44.066;2.982;2023-07-22T04:17:02;4.95;;;2.33;;
81714;SDS011;71125;44.066;2.982;2023-07-22T04:19:32;3.95;;;2.15;;
81714;SDS011;71125;44.066;2.982;2023-07-22T04:21:58;4.20;;;2.47;;
81714;SDS011;71125;44.066;2.982;2023-07-22T04:24:29;7.82;;;3.30;;
81714;SDS011;71125;44.066;2.982;2023-07-22T04:26:55;5.68;;;2.50;;
81714;SDS011;71125;44.066;2.982;2023-07-22T04:29:21;7.15;;;2.72;;
81714;SDS011;71125;44.066;2.982;2023-07-22T04:31:47;5.05;;;2.65;;
81714;SDS011;71125;44.066;2.982;2023-07-22T04:34:13;7.07;;;2.60;;
81714;SDS011;71125;44.066;2.982;2023-07-22T04:36:39;4.90;;;2.70;;
81714;SDS011;71125;44.066;2.982;2023-07-22T04:39:05;5.60;;;2.40;;
81714;SDS011;71125;44.066;2.982;2023-07-22T04:41:32;7.22;;;2.83;;
81714;SDS011;71125;44.066;2.982;2023-07-22T04:43:58;7.15;;;2.63;;
81714;SDS011;71125;44.066;2.982;2023-07-22T04:46:25;4.45;;;2.55;;
81714;SDS011;71125;44.066;2.982;2023-07-22T04:48:54;5.60;;;2.50;;
81714;SDS011;71125;44.066;2.982;2023-07-22T04:51:20;6.85;;;2.67;;
81714;SDS011;71125;44.066;2.982;2023-07-22T04:53:46;5.93;;;2.35;;
81714;SDS011;71125;44.066;2.982;2023-07-22T04:56:12;5.88;;;3.05;;
81714;SDS011;71125;44.066;2.982;2023-07-22T04:58:38;4.72;;;2.63;;
81714;SDS011;71125;44.066;2.982;2023-07-22T05:01:04;5.85;;;2.70;;
81714;SDS011;71125;44.066;2.982;2023-07-22T05:03:30;7.20;;;3.00;;
81714;SDS011;71125;44.066;2.982;2023-07-22T05:05:56;6.25;;;3.15;;
81714;SDS011;71125;44.066;2.982;2023-07-22T05:08:23;5.22;;;3.13;;
81714;SDS011;71125;44.066;2.982;2023-07-22T05:10:49;9.18;;;2.63;;
81714;SDS011;71125;44.066;2.982;2023-07-22T05:13:15;5.80;;;2.90;;
81714;SDS011;71125;44.066;2.982;2023-07-22T05:15:42;6.72;;;2.90;;
81714;SDS011;71125;44.066;2.982;2023-07-22T05:18:08;4.60;;;2.63;;
81714;SDS011;71125;44.066;2.982;2023-07-22T05:20:34;5.32;;;2.63;;
81714;SDS011;71125;44.066;2.982;2023-07-22T05:23:00;6.45;;;3.50;;
81714;SDS011;71125;44.066;2.982;2023-07-22T05:25:26;5.05;;;2.92;;
81714;SDS011;71125;44.066;2.982;2023-07-22T05:27:52;6.05;;;2.60;;
81714;SDS011;71125;44.066;2.982;2023-07-22T05:30:18;4.82;;;2.70;;
81714;SDS011;71125;44.066;2.982;2023-07-22T05:32:44;5.10;;;2.40;;
81714;SDS011;71125;44.066;2.982;2023-07-22T05:35:10;5.00;;;2.65;;
81714;SDS011;71125;44.066;2.982;2023-07-22T05:37:36;4.63;;;2.50;;
81714;SDS011;71125;44.066;2.982;2023-07-22T05:40:02;9.82;;;2.80;;
81714;SDS011;71125;44.066;2.982;2023-07-22T05:42:28;6.82;;;2.65;;
81714;SDS011;71125;44.066;2.982;2023-07-22T05:44:57;4.22;;;2.40;;
81714;SDS011;71125;44.066;2.982;2023-07-22T05:47:23;7.38;;;2.47;;
81714;SDS011;71125;44.066;2.982;2023-07-22T05:49:49;5.55;;;2.42;;
81714;SDS011;71125;44.066;2.982;2023-07-22T05:52:15;4.22;;;2.20;;
81714;SDS011;71125;44.066;2.982;2023-07-22T05:54:41;4.93;;;2.50;;
81714;SDS011;71125;44.066;2.982;2023-07-22T05:57:07;4.00;;;2.30;;
81714;SDS011;71125;44.066;2.982;2023-07-22T05:59:33;9.50;;;2.28;;
81714;SDS011;71125;44.066;2.982;2023-07-22T06:02:01;6.75;;;2.10;;
81714;SDS011;71125;44.066;2.982;2023-07-22T06:04:27;8.43;;;2.22;;
81714;SDS011;71125;44.066;2.982;2023-07-22T06:06:53;5.40;;;2.30;;
81714;SDS011;71125;44.066;2.982;2023-07-22T06:09:21;8.43;;;2.22;;
81714;SDS011;71125;44.066;2.982;2023-07-22T06:11:47;5.03;;;2.17;;
81714;SDS011;71125;44.066;2.982;2023-07-22T06:14:13;3.95;;;2.10;;
81714;SDS011;71125;44.066;2.982;2023-07-22T06:16:39;9.55;;;2.40;;
81714;SDS011;71125;44.066;2.982;2023-07-22T06:19:05;3.72;;;1.90;;
81714;SDS011;71125;44.066;2.982;2023-07-22T06:21:31;3.97;;;2.17;;
81714;SDS011;71125;44.066;2.982;2023-07-22T06:23:57;7.68;;;1.90;;
81714;SDS011;71125;44.066;2.982;2023-07-22T06:26:23;4.05;;;2.15;;
81714;SDS011;71125;44.066;2.982;2023-07-22T06:28:49;8.15;;;2.22;;
81714;SDS011;71125;44.066;2.982;2023-07-22T06:31:15;5.60;;;2.40;;
81714;SDS011;71125;44.066;2.982;2023-07-22T06:33:43;4.70;;;2.10;;
81714;SDS011;71125;44.066;2.982;2023-07-22T06:36:09;6.28;;;2.50;;
81714;SDS011;71125;44.066;2.982;2023-07-22T06:38:35;4.95;;;2.20;;
81714;SDS011;71125;44.066;2.982;2023-07-22T06:41:01;5.15;;;2.10;;
81714;SDS011;71125;44.066;2.982;2023-07-22T06:43:27;4.35;;;2.20;;
81714;SDS011;71125;44.066;2.982;2023-07-22T06:45:53;4.28;;;1.98;;
81714;SDS011;71125;44.066;2.982;2023-07-22T06:48:19;7.80;;;2.40;;
81714;SDS011;71125;44.066;2.982;2023-07-22T06:50:48;4.15;;;2.10;;
81714;SDS011;71125;44.066;2.982;2023-07-22T06:53:15;6.22;;;2.08;;
81714;SDS011;71125;44.066;2.982;2023-07-22T06:55:51;6.80;;;2.33;;
81714;SDS011;71125;44.066;2.982;2023-07-22T06:58:17;4.00;;;2.05;;
81714;SDS011;71125;44.066;2.982;2023-07-22T07:00:43;3.75;;;1.92;;
81714;SDS011;71125;44.066;2.982;2023-07-22T07:03:09;6.80;;;2.22;;
81714;SDS011;71125;44.066;2.982;2023-07-22T07:05:35;7.55;;;2.72;;
81714;SDS011;71125;44.066;2.982;2023-07-22T07:08:02;5.32;;;2.53;;
81714;SDS011;71125;44.066;2.982;2023-07-22T07:10:28;4.00;;;1.88;;
81714;SDS011;71125;44.066;2.982;2023-07-22T07:12:55;5.95;;;2.30;;
81714;SDS011;71125;44.066;2.982;2023-07-22T07:15:21;6.15;;;2.60;;
81714;SDS011;71125;44.066;2.982;2023-07-22T07:17:47;7.78;;;2.80;;
81714;SDS011;71125;44.066;2.982;2023-07-22T07:20:13;4.97;;;2.17;;
81714;SDS011;71125;44.066;2.982;2023-07-22T07:22:40;4.30;;;2.30;;
81714;SDS011;71125;44.066;2.982;2023-07-22T07:25:06;10.95;;;1.90;;
81714;SDS011;71125;44.066;2.982;2023-07-22T07:27:33;7.32;;;2.30;;
81714;SDS011;71125;44.066;2.982;2023-07-22T07:29:59;4.07;;;2.17;;
81714;SDS011;71125;44.066;2.982;2023-07-22T07:32:25;7.32;;;2.45;;
81714;SDS011;71125;44.066;2.982;2023-07-22T07:34:52;4.70;;;2.28;;
81714;SDS011;71125;44.066;2.982;2023-07-22T07:37:18;5.10;;;2.60;;
81714;SDS011;71125;44.066;2.982;2023-07-22T07:39:44;3.80;;;2.30;;
81714;SDS011;71125;44.066;2.982;2023-07-22T07:42:10;5.65;;;1.92;;
81714;SDS011;71125;44.066;2.982;2023-07-22T07:44:36;5.13;;;2.17;;
81714;SDS011;71125;44.066;2.982;2023-07-22T07:47:02;5.20;;;1.92;;
81714;SDS011;71125;44.066;2.982;2023-07-22T07:49:29;4.95;;;2.17;;
81714;SDS011;71125;44.066;2.982;2023-07-22T07:51:55;7.25;;;2.40;;
81714;SDS011;71125;44.066;2.982;2023-07-22T07:54:21;5.28;;;2.28;;
81714;SDS011;71125;44.066;2.982;2023-07-22T07:56:47;4.47;;;2.20;;
81714;SDS011;71125;44.066;2.982;2023-07-22T07:59:13;5.15;;;2.17;;
81714;SDS011;71125;44.066;2.982;2023-07-22T08:01:39;7.13;;;2.22;;
81714;SDS011;71125;44.066;2.982;2023-07-22T08:04:07;7.88;;;2.25;;
81714;SDS011;71125;44.066;2.982;2023-07-22T08:06:33;7.30;;;2.53;;
81714;SDS011;71125;44.066;2.982;2023-07-22T08:09:00;6.13;;;1.90;;
81714;SDS011;71125;44.066;2.982;2023-07-22T08:11:26;12.02;;;2.70;;
81714;SDS011;71125;44.066;2.982;2023-07-22T08:13:52;6.45;;;2.15;;
81714;SDS011;71125;44.066;2.982;2023-07-22T08:16:18;3.83;;;1.70;;
81714;SDS011;71125;44.066;2.982;2023-07-22T08:18:44;4.30;;;2.08;;
81714;SDS011;71125;44.066;2.982;2023-07-22T08:21:12;9.70;;;2.50;;
81714;SDS011;71125;44.066;2.982;2023-07-22T08:23:38;5.90;;;2.15;;
81714;SDS011;71125;44.066;2.982;2023-07-22T08:26:04;6.63;;;1.98;;
81714;SDS011;71125;44.066;2.982;2023-07-22T08:28:31;4.95;;;2.08;;
81714;SDS011;71125;44.066;2.982;2023-07-22T08:30:57;5.63;;;2.22;;
81714;SDS011;71125;44.066;2.982;2023-07-22T08:33:25;8.90;;;2.45;;
81714;SDS011;71125;44.066;2.982;2023-07-22T08:35:51;5.88;;;2.10;;
81714;SDS011;71125;44.066;2.982;2023-07-22T08:38:18;6.00;;;1.88;;
81714;SDS011;71125;44.066;2.982;2023-07-22T08:40:44;4.95;;;2.22;;
81714;SDS011;71125;44.066;2.982;2023-07-22T08:43:11;8.70;;;2.60;;
81714;SDS011;71125;44.066;2.982;2023-07-22T08:45:37;3.22;;;1.80;;
81714;SDS011;71125;44.066;2.982;2023-07-22T08:48:04;4.25;;;1.60;;
81714;SDS011;71125;44.066;2.982;2023-07-22T08:51:35;3.53;;;1.80;;
81714;SDS011;71125;44.066;2.982;2023-07-22T08:53:30;4.97;;;2.00;;
81714;SDS011;71125;44.066;2.982;2023-07-22T08:55:58;4.35;;;2.00;;
81714;SDS011;71125;44.066;2.982;2023-07-22T08:58:24;9.40;;;2.00;;
81714;SDS011;71125;44.066;2.982;2023-07-22T09:00:51;4.60;;;1.83;;
81714;SDS011;71125;44.066;2.982;2023-07-22T09:03:17;3.30;;;1.75;;
81714;SDS011;71125;44.066;2.982;2023-07-22T09:05:44;3.80;;;1.70;;
81714;SDS011;71125;44.066;2.982;2023-07-22T09:08:10;3.47;;;1.60;;
81714;SDS011;71125;44.066;2.982;2023-07-22T09:10:36;4.00;;;1.60;;
81714;SDS011;71125;44.066;2.982;2023-07-22T09:13:03;7.38;;;1.92;;
81714;SDS011;71125;44.066;2.982;2023-07-22T09:15:29;2.97;;;1.83;;
81714;SDS011;71125;44.066;2.982;2023-07-22T09:17:57;3.05;;;1.60;;
81714;SDS011;71125;44.066;2.982;2023-07-22T09:20:23;3.80;;;1.63;;
81714;SDS011;71125;44.066;2.982;2023-07-22T09:22:51;4.63;;;1.60;;
81714;SDS011;71125;44.066;2.982;2023-07-22T09:25:21;3.03;;;1.80;;
81714;SDS011;71125;44.066;2.982;2023-07-22T09:27:51;7.93;;;1.70;;
81714;SDS011;71125;44.066;2.982;2023-07-22T09:32:46;5.10;;;1.58;;
81714;SDS011;71125;44.066;2.982;2023-07-22T09:35:12;2.60;;;1.60;;
81714;SDS011;71125;44.066;2.982;2023-07-22T09:37:39;4.65;;;1.88;;
81714;SDS011;71125;44.066;2.982;2023-07-22T09:40:13;3.33;;;1.70;;
81714;SDS011;71125;44.066;2.982;2023-07-22T09:42:40;8.63;;;2.13;;
81714;SDS011;71125;44.066;2.982;2023-07-22T09:45:06;3.72;;;1.52;;
81714;SDS011;71125;44.066;2.982;2023-07-22T09:47:42;6.35;;;1.83;;
81714;SDS011;71125;44.066;2.982;2023-07-22T09:50:19;4.03;;;1.60;;
81714;SDS011;71125;44.066;2.982;2023-07-22T09:52:53;4.95;;;1.52;;
81714;SDS011;71125;44.066;2.982;2023-07-22T09:55:23;3.63;;;1.63;;
81714;SDS011;71125;44.066;2.982;2023-07-22T09:57:50;4.57;;;1.70;;
81714;SDS011;71125;44.066;2.982;2023-07-22T10:00:17;4.78;;;1.70;;
81714;SDS011;71125;44.066;2.982;2023-07-22T10:02:47;3.90;;;1.42;;
81714;SDS011;71125;44.066;2.982;2023-07-22T10:05:15;2.28;;;1.50;;
81714;SDS011;71125;44.066;2.982;2023-07-22T10:07:49;5.07;;;1.42;;
81714;SDS011;71125;44.066;2.982;2023-07-22T10:10:16;3.65;;;1.35;;
81714;SDS011;71125;44.066;2.982;2023-07-22T10:12:42;1.95;;;1.15;;
81714;SDS011;71125;44.066;2.982;2023-07-22T10:15:09;1.92;;;1.20;;
81714;SDS011;71125;44.066;2.982;2023-07-22T10:17:37;5.30;;;1.50;;
81714;SDS011;71125;44.066;2.982;2023-07-22T10:20:03;3.03;;;1.50;;
81714;SDS011;71125;44.066;2.982;2023-07-22T10:22:33;2.75;;;1.42;;
81714;SDS011;71125;44.066;2.982;2023-07-22T10:25:00;3.38;;;1.30;;
81714;SDS011;71125;44.066;2.982;2023-07-22T10:27:27;3.17;;;1.33;;
81714;SDS011;71125;44.066;2.982;2023-07-22T10:29:53;3.17;;;1.30;;
81714;SDS011;71125;44.066;2.982;2023-07-22T10:32:20;3.35;;;1.42;;
81714;SDS011;71125;44.066;2.982;2023-07-22T10:34:47;6.05;;;1.60;;
81714;SDS011;71125;44.066;2.982;2023-07-22T10:37:13;7.43;;;2.13;;
81714;SDS011;71125;44.066;2.982;2023-07-22T10:39:39;4.13;;;1.83;;
81714;SDS011;71125;44.066;2.982;2023-07-22T10:42:05;4.05;;;2.83;;
81714;SDS011;71125;44.066;2.982;2023-07-22T10:44:32;2.38;;;2.00;;
81714;SDS011;71125;44.066;2.982;2023-07-22T10:46:59;3.70;;;3.10;;
81714;SDS011;71125;44.066;2.982;2023-07-22T10:49:27;2.35;;;1.55;;
81714;SDS011;71125;44.066;2.982;2023-07-22T10:52:03;4.65;;;1.65;;
81714;SDS011;71125;44.066;2.982;2023-07-22T10:54:33;2.53;;;1.40;;
81714;SDS011;71125;44.066;2.982;2023-07-22T10:57:03;2.00;;;1.10;;
81714;SDS011;71125;44.066;2.982;2023-07-22T10:59:31;4.45;;;1.10;;
81714;SDS011;71125;44.066;2.982;2023-07-22T11:01:59;4.93;;;1.38;;
81714;SDS011;71125;44.066;2.982;2023-07-22T11:04:26;3.67;;;1.50;;
81714;SDS011;71125;44.066;2.982;2023-07-22T11:06:56;3.47;;;1.40;;
81714;SDS011;71125;44.066;2.982;2023-07-22T11:14:30;2.80;;;1.42;;
81714;SDS011;71125;44.066;2.982;2023-07-22T11:16:59;5.63;;;1.65;;
81714;SDS011;71125;44.066;2.982;2023-07-22T11:19:26;3.28;;;1.65;;
81714;SDS011;71125;44.066;2.982;2023-07-22T11:21:52;4.35;;;2.00;;
81714;SDS011;71125;44.066;2.982;2023-07-22T11:24:19;4.75;;;2.00;;
81714;SDS011;71125;44.066;2.982;2023-07-22T11:26:46;5.20;;;1.83;;
81714;SDS011;71125;44.066;2.982;2023-07-22T11:29:12;4.22;;;1.98;;
81714;SDS011;71125;44.066;2.982;2023-07-22T11:31:40;4.25;;;1.92;;
81714;SDS011;71125;44.066;2.982;2023-07-22T11:34:08;4.57;;;1.75;;
81714;SDS011;71125;44.066;2.982;2023-07-22T11:36:34;3.65;;;1.58;;
81714;SDS011;71125;44.066;2.982;2023-07-22T11:39:04;5.15;;;1.30;;
81714;SDS011;71125;44.066;2.982;2023-07-22T11:41:31;3.92;;;1.27;;
81714;SDS011;71125;44.066;2.982;2023-07-22T11:44:01;6.18;;;1.55;;
81714;SDS011;71125;44.066;2.982;2023-07-22T11:46:27;2.63;;;1.30;;
81714;SDS011;71125;44.066;2.982;2023-07-22T11:48:54;4.55;;;1.80;;
81714;SDS011;71125;44.066;2.982;2023-07-22T11:51:21;3.05;;;1.40;;
81714;SDS011;71125;44.066;2.982;2023-07-22T11:53:48;2.10;;;1.23;;
81714;SDS011;71125;44.066;2.982;2023-07-22T11:56:27;5.68;;;1.70;;
81714;SDS011;71125;44.066;2.982;2023-07-22T11:58:56;4.88;;;1.25;;
81714;SDS011;71125;44.066;2.982;2023-07-22T12:01:23;3.92;;;1.65;;
81714;SDS011;71125;44.066;2.982;2023-07-22T12:03:50;6.75;;;1.50;;
81714;SDS011;71125;44.066;2.982;2023-07-22T12:06:21;4.47;;;1.50;;
81714;SDS011;71125;44.066;2.982;2023-07-22T12:08:51;5.55;;;1.38;;
81714;SDS011;71125;44.066;2.982;2023-07-22T12:11:18;3.15;;;1.23;;
81714;SDS011;71125;44.066;2.982;2023-07-22T12:13:44;3.65;;;1.23;;
81714;SDS011;71125;44.066;2.982;2023-07-22T12:16:20;5.20;;;1.30;;
81714;SDS011;71125;44.066;2.982;2023-07-22T12:18:46;6.07;;;1.20;;
81714;SDS011;71125;44.066;2.982;2023-07-22T12:21:13;2.83;;;1.40;;
81714;SDS011;71125;44.066;2.982;2023-07-22T12:23:40;3.28;;;1.60;;
81714;SDS011;71125;44.066;2.982;2023-07-22T12:26:07;2.35;;;0.75;;
81714;SDS011;71125;44.066;2.982;2023-07-22T12:28:33;2.38;;;1.45;;
81714;SDS011;71125;44.066;2.982;2023-07-22T12:30:59;2.63;;;1.20;;
81714;SDS011;71125;44.066;2.982;2023-07-22T12:33:25;1.88;;;1.10;;
81714;SDS011;71125;44.066;2.982;2023-07-22T12:35:55;2.58;;;1.40;;
81714;SDS011;71125;44.066;2.982;2023-07-22T12:38:21;3.45;;;1.48;;
81714;SDS011;71125;44.066;2.982;2023-07-22T12:40:47;2.58;;;1.13;;
81714;SDS011;71125;44.066;2.982;2023-07-22T12:43:13;6.03;;;1.13;;
81714;SDS011;71125;44.066;2.982;2023-07-22T12:45:39;2.42;;;1.05;;
81714;SDS011;71125;44.066;2.982;2023-07-22T12:48:05;2.35;;;1.20;;
81714;SDS011;71125;44.066;2.982;2023-07-22T12:50:32;2.60;;;1.05;;
81714;SDS011;71125;44.066;2.982;2023-07-22T12:52:58;2.22;;;1.30;;
81714;SDS011;71125;44.066;2.982;2023-07-22T12:55:25;5.45;;;1.10;;
81714;SDS011;71125;44.066;2.982;2023-07-22T12:57:51;2.40;;;1.10;;
81714;SDS011;71125;44.066;2.982;2023-07-22T13:00:17;1.25;;;0.80;;
81714;SDS011;71125;44.066;2.982;2023-07-22T13:02:43;2.45;;;1.23;;
81714;SDS011;71125;44.066;2.982;2023-07-22T13:05:09;1.65;;;0.93;;
81714;SDS011;71125;44.066;2.982;2023-07-22T13:07:36;1.88;;;0.95;;
81714;SDS011;71125;44.066;2.982;2023-07-22T13:10:02;3.15;;;1.00;;
81714;SDS011;71125;44.066;2.982;2023-07-22T13:12:31;1.55;;;0.77;;
81714;SDS011;71125;44.066;2.982;2023-07-22T13:14:57;2.63;;;1.00;;
81714;SDS011;71125;44.066;2.982;2023-07-22T13:17:24;1.42;;;0.80;;
81714;SDS011;71125;44.066;2.982;2023-07-22T13:19:50;1.90;;;0.88;;
81714;SDS011;71125;44.066;2.982;2023-07-22T13:22:16;3.33;;;1.40;;
81714;SDS011;71125;44.066;2.982;2023-07-22T13:24:42;1.92;;;1.05;;
81714;SDS011;71125;44.066;2.982;2023-07-22T13:27:08;2.60;;;1.10;;
81714;SDS011;71125;44.066;2.982;2023-07-22T13:29:34;1.88;;;0.90;;
81714;SDS011;71125;44.066;2.982;2023-07-22T13:32:00;4.38;;;1.05;;
81714;SDS011;71125;44.066;2.982;2023-07-22T13:34:26;2.13;;;0.93;;
81714;SDS011;71125;44.066;2.982;2023-07-22T13:36:52;1.70;;;0.93;;
81714;SDS011;71125;44.066;2.982;2023-07-22T13:39:18;1.65;;;0.90;;
81714;SDS011;71125;44.066;2.982;2023-07-22T13:41:44;2.75;;;1.13;;
81714;SDS011;71125;44.066;2.982;2023-07-22T13:44:10;1.27;;;0.82;;
81714;SDS011;71125;44.066;2.982;2023-07-22T13:46:36;2.67;;;0.88;;
81714;SDS011;71125;44.066;2.982;2023-07-22T13:49:02;1.60;;;1.00;;
81714;SDS011;71125;44.066;2.982;2023-07-22T13:51:28;1.27;;;0.80;;
81714;SDS011;71125;44.066;2.982;2023-07-22T13:53:54;3.17;;;1.02;;
81714;SDS011;71125;44.066;2.982;2023-07-22T13:56:22;1.92;;;1.00;;
81714;SDS011;71125;44.066;2.982;2023-07-22T13:58:49;1.90;;;1.10;;
81714;SDS011;71125;44.066;2.982;2023-07-22T14:01:15;2.95;;;0.80;;
81714;SDS011;71125;44.066;2.982;2023-07-22T14:03:41;1.42;;;0.82;;
81714;SDS011;71125;44.066;2.982;2023-07-22T14:06:07;1.52;;;0.88;;
81714;SDS011;71125;44.066;2.982;2023-07-22T14:08:33;1.70;;;0.65;;
81714;SDS011;71125;44.066;2.982;2023-07-22T14:10:59;2.22;;;0.90;;
81714;SDS011;71125;44.066;2.982;2023-07-22T14:13:25;1.30;;;0.90;;
81714;SDS011;71125;44.066;2.982;2023-07-22T14:15:51;2.88;;;1.42;;
81714;SDS011;71125;44.066;2.982;2023-07-22T14:18:18;2.63;;;1.08;;
81714;SDS011;71125;44.066;2.982;2023-07-22T14:20:44;2.45;;;0.95;;
81714;SDS011;71125;44.066;2.982;2023-07-22T14:23:11;2.38;;;0.90;;
81714;SDS011;71125;44.066;2.982;2023-07-22T14:25:37;3.15;;;1.15;;
81714;SDS011;71125;44.066;2.982;2023-07-22T14:28:03;1.60;;;1.02;;
81714;SDS011;71125;44.066;2.982;2023-07-22T14:30:29;2.78;;;1.30;;
81714;SDS011;71125;44.066;2.982;2023-07-22T14:32:55;2.47;;;1.00;;
81714;SDS011;71125;44.066;2.982;2023-07-22T14:35:21;1.65;;;0.80;;
81714;SDS011;71125;44.066;2.982;2023-07-22T14:37:47;1.83;;;0.95;;
81714;SDS011;71125;44.066;2.982;2023-07-22T14:40:13;2.67;;;1.58;;
81714;SDS011;71125;44.066;2.982;2023-07-22T14:42:40;4.00;;;1.08;;
81714;SDS011;71125;44.066;2.982;2023-07-22T14:45:06;1.58;;;0.90;;
81714;SDS011;71125;44.066;2.982;2023-07-22T14:47:32;2.72;;;1.10;;
81714;SDS011;71125;44.066;2.982;2023-07-22T14:50:00;2.20;;;1.10;;
81714;SDS011;71125;44.066;2.982;2023-07-22T14:52:26;4.60;;;1.30;;